createdAt,value
2018-08-29T03:23:01.373Z,0.1
2018-08-29T03:25:01.083Z,0.2
2018-08-29T03:26:01.087Z,0.3
2018-08-29T03:28:01.288Z,0.4
2018-08-29T03:29:01.108Z,0.5
2018-08-29T03:30:01.057Z,0.5
2018-08-29T03:31:01.090Z,0.6
2018-08-29T03:32:01.089Z,0.7
2018-08-29T03:33:01.309Z,0.8
2018-08-29T03:34:01.114Z,0.9
2018-08-29T03:35:01.085Z,1.1
2018-08-29T03:36:01.093Z,1.3
2018-08-29T03:37:01.097Z,1.5
2018-08-29T03:38:01.235Z,1.7
2018-08-29T03:39:01.125Z,1.9
2018-08-29T03:40:01.096Z,2.1
2018-08-29T03:41:01.091Z,2.5
2018-08-29T03:42:01.093Z,2.9
2018-08-29T03:43:01.236Z,3.3
2018-08-29T03:44:06.092Z,3.9
2018-08-29T03:45:01.093Z,4.6
2018-08-29T03:46:01.095Z,5.4
2018-08-29T03:47:01.095Z,6.4
2018-08-29T03:48:01.242Z,7.5
2018-08-29T03:49:01.118Z,8.7
2018-08-29T03:50:01.065Z,10.3
2018-08-29T03:51:01.063Z,12.0
2018-08-29T03:52:01.103Z,14.1
2018-08-29T03:53:01.268Z,16.5
2018-08-29T03:54:01.198Z,19.3
2018-08-29T03:55:01.096Z,22.7
2018-08-29T03:56:01.134Z,26.5
2018-08-29T03:57:01.106Z,31.1
2018-08-29T03:58:01.347Z,36.5
2018-08-29T03:59:01.131Z,42.8
2018-08-29T04:00:01.099Z,50.1
2018-08-29T04:01:01.097Z,58.5
2018-08-29T04:02:01.094Z,68.3
2018-08-29T04:03:01.238Z,79.5
2018-08-29T04:04:01.129Z,92.6
2018-08-29T04:05:01.266Z,107.7
2018-08-29T04:06:01.160Z,125.2
2018-08-29T04:07:01.097Z,145.5
2018-08-29T04:08:01.206Z,169.0
2018-08-29T04:09:06.149Z,195.9
2018-08-29T04:10:01.112Z,226.5
2018-08-29T04:11:01.101Z,261.1
2018-08-29T04:12:01.097Z,299.6
2018-08-29T04:13:01.239Z,342.7
2018-08-29T04:15:01.081Z,397.9
2018-08-29T04:16:01.049Z,460.1
2018-08-29T04:17:01.084Z,529.5
2018-08-29T04:18:01.052Z,606.3
2018-08-29T04:19:01.223Z,690.9
2018-08-29T04:20:01.085Z,783.4
2018-08-29T04:21:01.055Z,884.3
2018-08-29T04:22:01.107Z,993.8
2018-08-29T04:23:01.093Z,1112.3
2018-08-29T04:24:01.270Z,1239.7
2018-08-29T04:25:01.088Z,1375.6
2018-08-29T04:26:01.053Z,1519.7
2018-08-29T04:27:01.089Z,1671.9
2018-08-29T04:28:01.091Z,1832.9
2018-08-29T04:29:02.264Z,2004.1
2018-08-29T04:30:01.089Z,2179.4
2018-08-29T04:31:01.098Z,2366.1
2018-08-29T04:32:01.089Z,2565.7
2018-08-29T04:33:01.091Z,2778.1
2018-08-29T04:34:01.334Z,3003.3
2018-08-29T04:35:01.098Z,3240.7
2018-08-29T04:36:01.130Z,3489.5
2018-08-29T04:37:01.157Z,3749.3
2018-08-29T04:38:01.096Z,4020.3
2018-08-29T04:39:01.279Z,4303.5
2018-08-29T04:40:01.092Z,4598.4
2018-08-29T04:41:01.091Z,4904.3
2018-08-29T04:42:01.097Z,5221.6
2018-08-29T04:43:01.088Z,5551.3
2018-08-29T04:44:01.300Z,5892.9
2018-08-29T04:45:01.092Z,6246.4
2018-08-29T04:46:01.090Z,6609.7
2018-08-29T04:47:01.096Z,6979.6
2018-08-29T04:48:01.061Z,7355.5
2018-08-29T04:49:01.268Z,7737.0
2018-08-29T04:50:01.095Z,8124.5
2018-08-29T04:51:01.063Z,8519.1
2018-08-29T04:52:01.064Z,8920.5
2018-08-29T04:53:01.092Z,9329.3
2018-08-29T04:54:01.364Z,9744.4
2018-08-29T04:55:01.100Z,10164.7
2018-08-29T04:56:01.096Z,10592.0
2018-08-29T04:57:01.094Z,11026.5
2018-08-29T04:58:01.095Z,11468.0
2018-08-29T04:59:01.274Z,11917.3
2018-08-29T05:00:01.072Z,12374.1
2018-08-29T05:01:01.066Z,12840.4
2018-08-29T05:02:01.100Z,13317.1
2018-08-29T05:03:01.099Z,13800.3
2018-08-29T05:04:01.283Z,14288.2
2018-08-29T05:05:01.106Z,14780.4
2018-08-29T05:06:01.098Z,15276.3
2018-08-29T05:07:01.103Z,15778.7
2018-08-29T05:09:01.269Z,16313.5
2018-08-29T05:10:01.082Z,16838.2
2018-08-29T05:11:01.090Z,17355.1
2018-08-29T05:12:01.086Z,17867.5
2018-08-29T05:13:01.086Z,18380.3
2018-08-29T05:14:01.328Z,18896.1
2018-08-29T05:15:01.090Z,19415.2
2018-08-29T05:16:01.056Z,19939.9
2018-08-29T05:17:01.093Z,20467.4
2018-08-29T05:18:01.087Z,20992.0
2018-08-29T05:19:01.261Z,21511.5
2018-08-29T05:20:01.055Z,22018.4
2018-08-29T05:21:01.093Z,22517.8
2018-08-29T05:22:01.101Z,23025.7
2018-08-29T05:23:01.088Z,23547.1
2018-08-29T05:24:01.331Z,24059.5
2018-08-29T05:25:01.111Z,24608.3
2018-08-29T05:26:01.092Z,25181.6
2018-08-29T05:27:01.089Z,25767.2
2018-08-29T05:28:01.060Z,26355.9
2018-08-29T05:29:01.327Z,26953.5
2018-08-29T05:30:01.090Z,27570.6
2018-08-29T05:31:01.089Z,28224.7
2018-08-29T05:32:01.060Z,28907.5
2018-08-29T05:33:01.090Z,29603.8
2018-08-29T05:34:01.267Z,30318.3
2018-08-29T05:35:01.091Z,31062.7
2018-08-29T05:36:01.092Z,31843.5
2018-08-29T05:37:01.092Z,32664.6
2018-08-29T05:38:01.090Z,33520.5
2018-08-29T05:39:01.279Z,34389.4
2018-08-29T05:40:01.056Z,35244.1
2018-08-29T05:41:01.059Z,36114.5
2018-08-29T05:42:01.093Z,36964.3
2018-08-29T05:43:01.089Z,37826.4
2018-08-29T05:44:01.266Z,38703.9
2018-08-29T05:45:01.060Z,39588.9
2018-08-29T05:46:01.089Z,40393.4
2018-08-29T05:47:01.094Z,41116.0
2018-08-29T05:48:01.259Z,41793.7
2018-08-29T05:49:01.269Z,42465.4
2018-08-29T05:50:01.094Z,43119.0
2018-08-29T05:51:01.063Z,43752.6
2018-08-29T05:52:01.095Z,44358.6
2018-08-29T05:53:01.093Z,44947.8
2018-08-29T05:54:01.424Z,45569.5
2018-08-29T05:55:01.098Z,46213.9
2018-08-29T05:56:01.097Z,46852.5
2018-08-29T05:57:01.097Z,47527.5
2018-08-29T05:58:01.101Z,48111.7
2018-08-29T05:59:01.277Z,48606.9
2018-08-29T06:00:01.092Z,49037.9
2018-08-29T06:01:01.100Z,49511.0
2018-08-29T06:02:01.099Z,50113.1
2018-08-29T06:03:01.094Z,50771.0
2018-08-29T06:04:01.260Z,51421.1
2018-08-29T06:05:01.098Z,52030.3
2018-08-29T06:06:01.065Z,52530.7
2018-08-29T06:07:01.117Z,53008.7
2018-08-29T06:08:01.100Z,53597.5
2018-08-29T06:09:01.328Z,54186.4
2018-08-29T06:10:01.210Z,54932.9
2018-08-29T06:11:01.100Z,55821.5
2018-08-29T06:12:01.098Z,56656.1
2018-08-29T06:13:01.106Z,57534.5
2018-08-29T06:14:01.241Z,58441.7
2018-08-29T06:15:01.100Z,59347.3
2018-08-29T06:16:01.111Z,60212.2
2018-08-29T06:17:01.099Z,60959.7
2018-08-29T06:18:01.098Z,61647.3
2018-08-29T06:19:01.339Z,62301.2
2018-08-29T06:20:01.097Z,62964.5
2018-08-29T06:21:01.101Z,63695.3
2018-08-29T06:23:01.082Z,64394.3
2018-08-29T06:24:01.258Z,64915.4
2018-08-29T06:25:01.054Z,65336.9
2018-08-29T06:26:01.091Z,65535.0
2018-08-29T06:30:01.083Z,65535.0
2018-08-29T06:45:01.106Z,65535.0
2018-08-29T07:00:01.102Z,65535.0
2018-08-29T07:15:01.088Z,65535.0
2018-08-29T07:30:01.098Z,65535.0
2018-08-29T07:45:01.097Z,65535.0
2018-08-29T08:00:01.072Z,65535.0
2018-08-29T08:16:01.143Z,65535.0
2018-08-29T08:30:01.374Z,65535.0
2018-08-29T08:45:01.304Z,65535.0
2018-08-29T09:00:01.417Z,65535.0
2018-08-29T09:15:01.294Z,65535.0
2018-08-29T09:30:01.370Z,65535.0
2018-08-29T09:45:01.336Z,65535.0
2018-08-29T10:00:01.307Z,65535.0
2018-08-29T10:15:01.625Z,65535.0
2018-08-29T10:30:01.391Z,65535.0
2018-08-29T10:45:01.277Z,65535.0
2018-08-29T11:00:01.298Z,65535.0
2018-08-29T11:15:01.429Z,65535.0
2018-08-29T11:30:01.302Z,65535.0
2018-08-29T11:45:01.290Z,65535.0
2018-08-29T12:00:01.325Z,65535.0
2018-08-29T12:15:01.301Z,65535.0
2018-08-29T12:30:01.368Z,65535.0
2018-08-29T12:45:01.286Z,65535.0
2018-08-29T13:00:06.086Z,65535.0
2018-08-29T13:15:01.086Z,65535.0
2018-08-29T13:30:01.234Z,65535.0
2018-08-29T13:45:06.094Z,65535.0
2018-08-29T14:00:01.418Z,65535.0
2018-08-29T14:15:01.296Z,65535.0
2018-08-29T14:30:01.131Z,65535.0
2018-08-29T14:45:01.057Z,65535.0
2018-08-29T15:00:01.558Z,65535.0
2018-08-29T15:15:01.085Z,65535.0
2018-08-29T15:30:01.091Z,65535.0
2018-08-29T15:45:01.090Z,65535.0
2018-08-29T16:00:01.090Z,65535.0
2018-08-29T16:03:01.294Z,65356.1
2018-08-29T16:04:06.093Z,64996.9
2018-08-29T16:05:01.060Z,64480.4
2018-08-29T16:06:01.093Z,63821.1
2018-08-29T16:07:06.092Z,63039.9
2018-08-29T16:08:01.239Z,62157.1
2018-08-29T16:09:01.094Z,61194.9
2018-08-29T16:10:01.060Z,60178.9
2018-08-29T16:11:01.094Z,59128.8
2018-08-29T16:12:06.094Z,58057.9
2018-08-29T16:13:01.240Z,56978.5
2018-08-29T16:14:01.098Z,55896.3
2018-08-29T16:16:01.075Z,54806.8
2018-08-29T16:17:01.076Z,53718.7
2018-08-29T16:18:01.220Z,52624.5
2018-08-29T16:19:01.081Z,51704.1
2018-08-29T16:20:01.080Z,50960.4
2018-08-29T16:21:01.086Z,50366.5
2018-08-29T16:22:01.083Z,49909.1
2018-08-29T16:23:01.222Z,49572.1
2018-08-29T16:24:01.105Z,49339.4
2018-08-29T16:25:01.092Z,49197.4
2018-08-29T16:26:01.091Z,49127.3
2018-08-29T16:27:01.083Z,49110.2
2018-08-29T16:28:01.232Z,49131.0
2018-08-29T16:29:01.087Z,49171.3
2018-08-29T16:30:01.085Z,49220.6
2018-08-29T16:31:01.087Z,49282.8
2018-08-29T16:32:01.087Z,49346.5
2018-08-29T16:33:01.351Z,49413.5
2018-08-29T16:34:01.084Z,49479.0
2018-08-29T16:35:01.053Z,49531.2
2018-08-29T16:36:01.088Z,49563.4
2018-08-29T16:37:01.090Z,49569.3
2018-08-29T16:38:01.460Z,49534.6
2018-08-29T16:39:01.091Z,49450.1
2018-08-29T16:40:01.090Z,49300.7
2018-08-29T16:41:01.091Z,49087.5
2018-08-29T16:42:01.065Z,48819.1
2018-08-29T16:43:01.230Z,48508.0
2018-08-29T16:44:01.094Z,48165.6
2018-08-29T16:45:01.101Z,47787.4
2018-08-29T16:46:01.219Z,47361.8
2018-08-29T16:47:01.091Z,46876.0
2018-08-29T16:48:01.271Z,46324.6
2018-08-29T16:49:01.095Z,45703.1
2018-08-29T16:50:01.099Z,45022.4
2018-08-29T16:51:01.093Z,44300.7
2018-08-29T16:52:01.098Z,43555.9
2018-08-29T16:53:01.343Z,42819.5
2018-08-29T16:54:01.098Z,42117.2
2018-08-29T16:55:01.102Z,41472.9
2018-08-29T16:56:01.097Z,40888.3
2018-08-29T16:57:01.092Z,40362.5
2018-08-29T16:58:01.294Z,39879.9
2018-08-29T16:59:01.129Z,39421.5
2018-08-29T17:00:01.096Z,38982.6
2018-08-29T17:02:01.084Z,38541.7
2018-08-29T17:03:01.293Z,38135.7
2018-08-29T17:04:01.114Z,37774.8
2018-08-29T17:05:01.084Z,37459.7
2018-08-29T17:06:01.083Z,37180.4
2018-08-29T17:07:01.084Z,36923.5
2018-08-29T17:08:01.277Z,36672.8
2018-08-29T17:09:01.085Z,36413.9
2018-08-29T17:10:01.081Z,36133.8
2018-08-29T17:11:01.117Z,35822.1
2018-08-29T17:12:01.090Z,35473.9
2018-08-29T17:13:01.285Z,35084.1
2018-08-29T17:14:01.080Z,34656.9
2018-08-29T17:15:01.089Z,34205.9
2018-08-29T17:16:01.091Z,33745.2
2018-08-29T17:17:06.096Z,33305.9
2018-08-29T17:18:01.198Z,32866.1
2018-08-29T17:19:01.088Z,32425.7
2018-08-29T17:20:01.092Z,31992.2
2018-08-29T17:21:01.092Z,31566.2
2018-08-29T17:22:06.182Z,31148.4
2018-08-29T17:23:01.229Z,30732.3
2018-08-29T17:24:01.090Z,30302.1
2018-08-29T17:25:01.091Z,29840.1
2018-08-29T17:26:01.090Z,29332.9
2018-08-29T17:27:01.096Z,28774.3
2018-08-29T17:28:01.226Z,28166.4
2018-08-29T17:29:01.091Z,27513.9
2018-08-29T17:30:01.093Z,26821.8
2018-08-29T17:31:01.092Z,26092.7
2018-08-29T17:32:01.113Z,25335.0
2018-08-29T17:33:01.253Z,24553.0
2018-08-29T17:34:01.090Z,23749.1
2018-08-29T17:35:01.157Z,22925.2
2018-08-29T17:36:01.093Z,22091.3
2018-08-29T17:37:06.096Z,21254.1
2018-08-29T17:38:01.229Z,20420.5
2018-08-29T17:39:01.228Z,19600.6
2018-08-29T17:40:01.184Z,18809.7
2018-08-29T17:41:01.093Z,18060.3
2018-08-29T17:42:01.118Z,17359.1
2018-08-29T17:43:01.248Z,16702.5
2018-08-29T17:44:01.091Z,16084.0
2018-08-29T17:45:01.092Z,15496.1
2018-08-29T17:46:01.064Z,14934.1
2018-08-29T17:47:01.253Z,14391.5
2018-08-29T17:48:01.233Z,13865.5
2018-08-29T17:49:01.097Z,13355.0
2018-08-29T17:50:01.097Z,12859.0
2018-08-29T17:51:01.105Z,12377.8
2018-08-29T17:52:06.102Z,11910.4
2018-08-29T17:53:01.266Z,11462.4
2018-08-29T17:54:01.096Z,11035.6
2018-08-29T17:55:01.099Z,10625.7
2018-08-29T17:56:01.099Z,10226.3
2018-08-29T17:58:01.476Z,9808.7
2018-08-29T17:59:01.089Z,9391.9
2018-08-29T18:00:01.088Z,8977.5
2018-08-29T18:01:01.112Z,8568.7
2018-08-29T18:02:01.086Z,8167.9
2018-08-29T18:03:01.237Z,7775.8
2018-08-29T18:04:01.083Z,7392.7
2018-08-29T18:05:01.151Z,7018.9
2018-08-29T18:06:01.121Z,6653.7
2018-08-29T18:07:01.151Z,6296.5
2018-08-29T18:08:01.232Z,5947.7
2018-08-29T18:09:01.091Z,5605.2
2018-08-29T18:10:01.059Z,5266.8
2018-08-29T18:11:01.097Z,4931.5
2018-08-29T18:12:06.094Z,4600.9
2018-08-29T18:13:01.237Z,4299.9
2018-08-29T18:14:01.091Z,4008.5
2018-08-29T18:15:01.093Z,3729.3
2018-08-29T18:16:01.092Z,3463.4
2018-08-29T18:17:06.160Z,3211.3
2018-08-29T18:18:01.303Z,2973.9
2018-08-29T18:19:01.092Z,2750.9
2018-08-29T18:20:01.094Z,2542.1
2018-08-29T18:21:01.128Z,2347.1
2018-08-29T18:22:06.094Z,2165.3
2018-08-29T18:23:01.299Z,1996.7
2018-08-29T18:24:01.140Z,1840.4
2018-08-29T18:25:01.063Z,1696.0
2018-08-29T18:26:01.113Z,1563.1
2018-08-29T18:27:01.068Z,1441.0
2018-08-29T18:28:01.307Z,1328.9
2018-08-29T18:29:01.096Z,1225.8
2018-08-29T18:30:01.097Z,1130.3
2018-08-29T18:31:01.224Z,1041.1
2018-08-29T18:32:01.102Z,957.1
2018-08-29T18:33:01.240Z,877.7
2018-08-29T18:34:01.066Z,802.4
2018-08-29T18:35:01.100Z,731.3
2018-08-29T18:36:01.096Z,664.4
2018-08-29T18:37:01.171Z,601.6
2018-08-29T18:38:01.337Z,542.9
2018-08-29T18:39:01.099Z,488.1
2018-08-29T18:40:01.074Z,437.1
2018-08-29T18:41:01.094Z,389.9
2018-08-29T18:42:01.102Z,346.3
2018-08-29T18:43:01.382Z,306.1
2018-08-29T18:44:01.100Z,269.3
2018-08-29T18:45:01.166Z,235.8
2018-08-29T18:46:01.100Z,205.6
2018-08-29T18:47:01.103Z,178.5
2018-08-29T18:48:01.239Z,154.5
2018-08-29T18:49:01.097Z,133.2
2018-08-29T18:50:01.173Z,114.6
2018-08-29T18:51:01.099Z,98.3
2018-08-29T18:52:01.097Z,84.2
2018-08-29T18:53:01.314Z,72.1
2018-08-29T18:55:01.084Z,61.5
2018-08-29T18:56:01.084Z,52.5
2018-08-29T18:57:01.086Z,44.9
2018-08-29T18:58:01.092Z,38.3
2018-08-29T18:59:01.471Z,32.8
2018-08-29T19:00:01.086Z,28.1
2018-08-29T19:01:01.085Z,24.1
2018-08-29T19:02:01.085Z,20.6
2018-08-29T19:03:01.090Z,17.7
2018-08-29T19:04:01.233Z,15.1
2018-08-29T19:05:01.085Z,13.0
2018-08-29T19:06:01.085Z,11.1
2018-08-29T19:07:01.087Z,9.5
2018-08-29T19:08:01.089Z,8.0
2018-08-29T19:09:01.224Z,6.7
2018-08-29T19:10:01.056Z,5.8
2018-08-29T19:11:01.090Z,5.0
2018-08-29T19:12:01.094Z,4.3
2018-08-29T19:13:01.114Z,3.7
2018-08-29T19:14:01.235Z,3.1
2018-08-29T19:15:01.091Z,2.7
2018-08-29T19:16:01.090Z,2.4
2018-08-29T19:17:01.090Z,2.1
2018-08-29T19:18:01.112Z,1.9
2018-08-29T19:19:01.246Z,1.6
2018-08-29T19:20:01.095Z,1.3
2018-08-29T19:21:01.095Z,1.1
2018-08-29T19:22:01.100Z,0.9
2018-08-29T19:23:01.124Z,0.8
2018-08-29T19:24:01.233Z,0.7
2018-08-29T19:25:01.164Z,0.5
2018-08-29T19:27:01.098Z,0.4
2018-08-29T19:28:01.088Z,0.3
2018-08-29T19:30:01.067Z,0.2
2018-08-29T19:31:01.164Z,0.1
